sensor_id;sensor_type;location;lat;lon;timestamp;P1;durP1;ratioP1;P2;durP2;ratioP2
68633;SDS011;55625;47.072;22.192;2022-10-18T00:01:56;12.47;;;3.83;;
68633;SDS011;55625;47.072;22.192;2022-10-18T00:04:22;9.73;;;4.03;;
68633;SDS011;55625;47.072;22.192;2022-10-18T00:06:48;9.53;;;3.13;;
68633;SDS011;55625;47.072;22.192;2022-10-18T00:09:13;5.47;;;2.47;;
68633;SDS011;55625;47.072;22.192;2022-10-18T00:11:40;7.22;;;3.22;;
68633;SDS011;55625;47.072;22.192;2022-10-18T00:14:06;13.17;;;2.53;;
68633;SDS011;55625;47.072;22.192;2022-10-18T00:16:32;9.57;;;3.78;;
68633;SDS011;55625;47.072;22.192;2022-10-18T00:18:58;11.88;;;4.03;;
68633;SDS011;55625;47.072;22.192;2022-10-18T00:21:24;7.90;;;3.70;;
68633;SDS011;55625;47.072;22.192;2022-10-18T00:23:51;10.83;;;3.03;;
68633;SDS011;55625;47.072;22.192;2022-10-18T00:28:53;7.45;;;2.63;;
68633;SDS011;55625;47.072;22.192;2022-10-18T00:31:26;6.65;;;2.85;;
68633;SDS011;55625;47.072;22.192;2022-10-18T00:33:58;8.95;;;3.65;;
68633;SDS011;55625;47.072;22.192;2022-10-18T00:36:28;5.23;;;2.20;;
68633;SDS011;55625;47.072;22.192;2022-10-18T00:38:56;8.70;;;3.13;;
68633;SDS011;55625;47.072;22.192;2022-10-18T00:41:24;8.07;;;2.47;;
68633;SDS011;55625;47.072;22.192;2022-10-18T00:46:20;6.63;;;2.37;;
68633;SDS011;55625;47.072;22.192;2022-10-18T00:48:47;6.60;;;2.42;;
68633;SDS011;55625;47.072;22.192;2022-10-18T00:51:14;8.13;;;2.90;;
68633;SDS011;55625;47.072;22.192;2022-10-18T00:53:42;8.75;;;3.40;;
68633;SDS011;55625;47.072;22.192;2022-10-18T00:56:08;9.53;;;3.10;;
68633;SDS011;55625;47.072;22.192;2022-10-18T00:58:35;6.15;;;2.53;;
68633;SDS011;55625;47.072;22.192;2022-10-18T01:01:01;8.65;;;3.33;;
68633;SDS011;55625;47.072;22.192;2022-10-18T01:03:26;8.00;;;2.97;;
68633;SDS011;55625;47.072;22.192;2022-10-18T01:05:52;7.83;;;3.00;;
68633;SDS011;55625;47.072;22.192;2022-10-18T01:08:37;11.10;;;2.75;;
68633;SDS011;55625;47.072;22.192;2022-10-18T01:18:03;5.57;;;1.85;;
68633;SDS011;55625;47.072;22.192;2022-10-18T01:23:35;5.50;;;2.08;;
68633;SDS011;55625;47.072;22.192;2022-10-18T01:29:49;5.87;;;2.77;;
68633;SDS011;55625;47.072;22.192;2022-10-18T01:32:50;5.75;;;2.47;;
68633;SDS011;55625;47.072;22.192;2022-10-18T01:35:21;6.10;;;2.53;;
68633;SDS011;55625;47.072;22.192;2022-10-18T01:37:55;4.95;;;2.42;;
68633;SDS011;55625;47.072;22.192;2022-10-18T01:40:25;6.20;;;2.42;;
68633;SDS011;55625;47.072;22.192;2022-10-18T01:42:54;7.07;;;2.30;;
68633;SDS011;55625;47.072;22.192;2022-10-18T01:45:20;17.25;;;2.63;;
68633;SDS011;55625;47.072;22.192;2022-10-18T01:47:48;4.95;;;1.92;;
68633;SDS011;55625;47.072;22.192;2022-10-18T01:50:15;9.77;;;2.85;;
68633;SDS011;55625;47.072;22.192;2022-10-18T01:52:58;5.73;;;2.20;;
68633;SDS011;55625;47.072;22.192;2022-10-18T01:55:26;10.65;;;2.00;;
68633;SDS011;55625;47.072;22.192;2022-10-18T02:00:49;6.60;;;2.25;;
68633;SDS011;55625;47.072;22.192;2022-10-18T02:03:27;3.78;;;1.35;;
68633;SDS011;55625;47.072;22.192;2022-10-18T02:06:16;6.50;;;2.80;;
68633;SDS011;55625;47.072;22.192;2022-10-18T02:08:50;3.97;;;1.70;;
68633;SDS011;55625;47.072;22.192;2022-10-18T02:11:32;4.63;;;2.47;;
68633;SDS011;55625;47.072;22.192;2022-10-18T02:14:07;3.75;;;2.08;;
68633;SDS011;55625;47.072;22.192;2022-10-18T02:16:41;4.93;;;2.20;;
68633;SDS011;55625;47.072;22.192;2022-10-18T02:19:34;4.97;;;2.40;;
68633;SDS011;55625;47.072;22.192;2022-10-18T02:22:10;3.92;;;2.47;;
68633;SDS011;55625;47.072;22.192;2022-10-18T02:24:40;7.43;;;3.15;;
68633;SDS011;55625;47.072;22.192;2022-10-18T02:27:12;9.80;;;3.17;;
68633;SDS011;55625;47.072;22.192;2022-10-18T02:29:38;6.47;;;2.30;;
68633;SDS011;55625;47.072;22.192;2022-10-18T02:32:20;8.40;;;3.23;;
68633;SDS011;55625;47.072;22.192;2022-10-18T02:35:45;6.20;;;1.90;;
68633;SDS011;55625;47.072;22.192;2022-10-18T02:38:05;6.68;;;2.67;;
68633;SDS011;55625;47.072;22.192;2022-10-18T02:40:33;8.48;;;2.00;;
68633;SDS011;55625;47.072;22.192;2022-10-18T02:42:59;7.47;;;2.75;;
68633;SDS011;55625;47.072;22.192;2022-10-18T02:45:25;6.70;;;1.57;;
68633;SDS011;55625;47.072;22.192;2022-10-18T02:47:51;6.82;;;2.40;;
68633;SDS011;55625;47.072;22.192;2022-10-18T02:50:17;6.68;;;2.78;;
68633;SDS011;55625;47.072;22.192;2022-10-18T02:52:43;8.98;;;2.38;;
68633;SDS011;55625;47.072;22.192;2022-10-18T02:55:09;6.17;;;2.33;;
68633;SDS011;55625;47.072;22.192;2022-10-18T02:57:35;7.95;;;3.72;;
68633;SDS011;55625;47.072;22.192;2022-10-18T03:00:02;6.93;;;2.35;;
68633;SDS011;55625;47.072;22.192;2022-10-18T03:02:29;6.10;;;2.58;;
68633;SDS011;55625;47.072;22.192;2022-10-18T03:04:56;6.38;;;2.83;;
68633;SDS011;55625;47.072;22.192;2022-10-18T03:07:21;9.53;;;2.47;;
68633;SDS011;55625;47.072;22.192;2022-10-18T03:09:47;8.15;;;3.65;;
68633;SDS011;55625;47.072;22.192;2022-10-18T03:12:13;5.53;;;2.33;;
68633;SDS011;55625;47.072;22.192;2022-10-18T03:14:39;5.60;;;2.37;;
68633;SDS011;55625;47.072;22.192;2022-10-18T03:17:05;4.00;;;1.60;;
68633;SDS011;55625;47.072;22.192;2022-10-18T03:19:30;5.97;;;2.57;;
68633;SDS011;55625;47.072;22.192;2022-10-18T03:21:56;9.48;;;2.22;;
68633;SDS011;55625;47.072;22.192;2022-10-18T03:24:22;6.28;;;2.63;;
68633;SDS011;55625;47.072;22.192;2022-10-18T03:26:48;6.30;;;1.97;;
68633;SDS011;55625;47.072;22.192;2022-10-18T03:29:14;9.48;;;4.25;;
68633;SDS011;55625;47.072;22.192;2022-10-18T03:31:39;5.50;;;2.30;;
68633;SDS011;55625;47.072;22.192;2022-10-18T03:34:06;3.47;;;1.27;;
68633;SDS011;55625;47.072;22.192;2022-10-18T03:36:32;7.50;;;3.00;;
68633;SDS011;55625;47.072;22.192;2022-10-18T03:38:58;12.43;;;3.35;;
68633;SDS011;55625;47.072;22.192;2022-10-18T03:41:25;7.95;;;2.33;;
68633;SDS011;55625;47.072;22.192;2022-10-18T03:43:51;5.90;;;2.53;;
68633;SDS011;55625;47.072;22.192;2022-10-18T03:46:16;8.33;;;2.13;;
68633;SDS011;55625;47.072;22.192;2022-10-18T03:48:42;5.25;;;2.83;;
68633;SDS011;55625;47.072;22.192;2022-10-18T03:51:08;5.43;;;2.60;;
68633;SDS011;55625;47.072;22.192;2022-10-18T03:53:34;8.00;;;2.53;;
68633;SDS011;55625;47.072;22.192;2022-10-18T03:56:00;7.78;;;3.38;;
68633;SDS011;55625;47.072;22.192;2022-10-18T03:58:25;9.93;;;2.97;;
68633;SDS011;55625;47.072;22.192;2022-10-18T04:00:51;7.40;;;2.95;;
68633;SDS011;55625;47.072;22.192;2022-10-18T04:03:19;5.43;;;2.38;;
68633;SDS011;55625;47.072;22.192;2022-10-18T04:05:46;18.73;;;3.07;;
68633;SDS011;55625;47.072;22.192;2022-10-18T04:08:13;7.28;;;3.28;;
68633;SDS011;55625;47.072;22.192;2022-10-18T04:10:41;4.70;;;2.53;;
68633;SDS011;55625;47.072;22.192;2022-10-18T04:13:07;7.63;;;3.80;;
68633;SDS011;55625;47.072;22.192;2022-10-18T04:15:33;7.72;;;3.20;;
68633;SDS011;55625;47.072;22.192;2022-10-18T04:17:59;6.50;;;2.57;;
68633;SDS011;55625;47.072;22.192;2022-10-18T04:20:26;7.53;;;3.70;;
68633;SDS011;55625;47.072;22.192;2022-10-18T04:22:52;6.85;;;2.88;;
68633;SDS011;55625;47.072;22.192;2022-10-18T04:25:19;7.40;;;3.00;;
68633;SDS011;55625;47.072;22.192;2022-10-18T04:27:46;7.83;;;2.83;;
68633;SDS011;55625;47.072;22.192;2022-10-18T04:30:12;5.65;;;3.13;;
68633;SDS011;55625;47.072;22.192;2022-10-18T04:32:38;8.70;;;2.65;;
68633;SDS011;55625;47.072;22.192;2022-10-18T04:35:04;7.50;;;3.17;;
68633;SDS011;55625;47.072;22.192;2022-10-18T04:37:31;9.20;;;3.83;;
68633;SDS011;55625;47.072;22.192;2022-10-18T04:39:57;10.10;;;5.20;;
68633;SDS011;55625;47.072;22.192;2022-10-18T04:42:23;9.88;;;3.22;;
68633;SDS011;55625;47.072;22.192;2022-10-18T04:44:49;6.18;;;2.92;;
68633;SDS011;55625;47.072;22.192;2022-10-18T04:47:15;14.00;;;4.37;;
68633;SDS011;55625;47.072;22.192;2022-10-18T04:49:41;5.93;;;3.13;;
68633;SDS011;55625;47.072;22.192;2022-10-18T04:52:08;8.65;;;3.72;;
68633;SDS011;55625;47.072;22.192;2022-10-18T04:54:34;10.00;;;3.35;;
68633;SDS011;55625;47.072;22.192;2022-10-18T04:57:00;8.18;;;3.38;;
68633;SDS011;55625;47.072;22.192;2022-10-18T04:59:26;13.90;;;3.93;;
68633;SDS011;55625;47.072;22.192;2022-10-18T05:01:52;7.82;;;3.53;;
68633;SDS011;55625;47.072;22.192;2022-10-18T05:04:18;6.00;;;3.10;;
68633;SDS011;55625;47.072;22.192;2022-10-18T05:06:44;24.77;;;3.70;;
68633;SDS011;55625;47.072;22.192;2022-10-18T05:09:10;6.22;;;3.08;;
68633;SDS011;55625;47.072;22.192;2022-10-18T05:11:36;11.40;;;3.97;;
68633;SDS011;55625;47.072;22.192;2022-10-18T05:14:02;7.72;;;4.15;;
68633;SDS011;55625;47.072;22.192;2022-10-18T05:16:28;6.60;;;1.80;;
68633;SDS011;55625;47.072;22.192;2022-10-18T05:18:53;9.18;;;3.67;;
68633;SDS011;55625;47.072;22.192;2022-10-18T05:21:19;5.95;;;2.53;;
68633;SDS011;55625;47.072;22.192;2022-10-18T05:23:45;8.20;;;3.90;;
68633;SDS011;55625;47.072;22.192;2022-10-18T05:26:11;17.83;;;5.22;;
68633;SDS011;55625;47.072;22.192;2022-10-18T05:28:37;8.32;;;4.00;;
68633;SDS011;55625;47.072;22.192;2022-10-18T05:31:03;12.53;;;5.07;;
68633;SDS011;55625;47.072;22.192;2022-10-18T05:33:31;9.02;;;4.13;;
68633;SDS011;55625;47.072;22.192;2022-10-18T05:35:57;7.15;;;3.00;;
68633;SDS011;55625;47.072;22.192;2022-10-18T05:38:24;12.18;;;3.72;;
68633;SDS011;55625;47.072;22.192;2022-10-18T05:40:50;7.73;;;3.00;;
68633;SDS011;55625;47.072;22.192;2022-10-18T05:43:16;13.30;;;3.03;;
68633;SDS011;55625;47.072;22.192;2022-10-18T05:45:48;8.27;;;2.70;;
68633;SDS011;55625;47.072;22.192;2022-10-18T05:48:15;9.20;;;3.72;;
68633;SDS011;55625;47.072;22.192;2022-10-18T05:50:41;7.77;;;3.83;;
68633;SDS011;55625;47.072;22.192;2022-10-18T05:53:08;6.22;;;2.28;;
68633;SDS011;55625;47.072;22.192;2022-10-18T05:55:34;8.15;;;4.28;;
68633;SDS011;55625;47.072;22.192;2022-10-18T05:58:00;10.25;;;2.88;;
68633;SDS011;55625;47.072;22.192;2022-10-18T06:00:26;7.53;;;4.00;;
68633;SDS011;55625;47.072;22.192;2022-10-18T06:02:53;8.13;;;3.53;;
68633;SDS011;55625;47.072;22.192;2022-10-18T06:05:19;6.68;;;2.40;;
68633;SDS011;55625;47.072;22.192;2022-10-18T06:07:44;7.68;;;4.47;;
68633;SDS011;55625;47.072;22.192;2022-10-18T06:10:10;9.57;;;3.37;;
68633;SDS011;55625;47.072;22.192;2022-10-18T06:12:36;7.03;;;2.83;;
68633;SDS011;55625;47.072;22.192;2022-10-18T06:15:02;11.60;;;3.37;;
68633;SDS011;55625;47.072;22.192;2022-10-18T06:17:28;10.13;;;4.20;;
68633;SDS011;55625;47.072;22.192;2022-10-18T06:19:54;7.72;;;3.90;;
68633;SDS011;55625;47.072;22.192;2022-10-18T06:22:20;6.40;;;2.75;;
68633;SDS011;55625;47.072;22.192;2022-10-18T06:24:46;10.50;;;4.00;;
68633;SDS011;55625;47.072;22.192;2022-10-18T06:27:12;8.88;;;3.67;;
68633;SDS011;55625;47.072;22.192;2022-10-18T06:29:38;11.40;;;3.10;;
68633;SDS011;55625;47.072;22.192;2022-10-18T06:32:05;8.77;;;3.37;;
68633;SDS011;55625;47.072;22.192;2022-10-18T06:34:31;7.35;;;3.42;;
68633;SDS011;55625;47.072;22.192;2022-10-18T06:36:58;14.05;;;3.60;;
68633;SDS011;55625;47.072;22.192;2022-10-18T06:39:24;7.20;;;2.78;;
68633;SDS011;55625;47.072;22.192;2022-10-18T06:41:50;10.75;;;3.35;;
68633;SDS011;55625;47.072;22.192;2022-10-18T06:44:16;6.00;;;3.23;;
68633;SDS011;55625;47.072;22.192;2022-10-18T06:46:43;7.78;;;4.00;;
68633;SDS011;55625;47.072;22.192;2022-10-18T06:49:11;9.55;;;3.85;;
68633;SDS011;55625;47.072;22.192;2022-10-18T06:51:38;7.20;;;2.80;;
68633;SDS011;55625;47.072;22.192;2022-10-18T06:54:05;6.25;;;3.42;;
68633;SDS011;55625;47.072;22.192;2022-10-18T06:56:31;8.90;;;3.70;;
68633;SDS011;55625;47.072;22.192;2022-10-18T06:58:58;11.68;;;4.20;;
68633;SDS011;55625;47.072;22.192;2022-10-18T07:01:24;8.23;;;3.90;;
68633;SDS011;55625;47.072;22.192;2022-10-18T07:03:51;9.63;;;4.03;;
68633;SDS011;55625;47.072;22.192;2022-10-18T07:06:18;13.23;;;3.58;;
68633;SDS011;55625;47.072;22.192;2022-10-18T07:08:45;8.85;;;4.30;;
68633;SDS011;55625;47.072;22.192;2022-10-18T07:11:15;9.13;;;5.10;;
68633;SDS011;55625;47.072;22.192;2022-10-18T07:13:43;7.90;;;3.47;;
68633;SDS011;55625;47.072;22.192;2022-10-18T07:16:10;9.73;;;3.28;;
68633;SDS011;55625;47.072;22.192;2022-10-18T07:18:39;6.07;;;2.95;;
68633;SDS011;55625;47.072;22.192;2022-10-18T07:21:11;8.43;;;2.92;;
68633;SDS011;55625;47.072;22.192;2022-10-18T07:23:39;10.15;;;3.10;;
68633;SDS011;55625;47.072;22.192;2022-10-18T07:26:11;8.30;;;4.50;;
68633;SDS011;55625;47.072;22.192;2022-10-18T07:28:41;12.10;;;4.03;;
68633;SDS011;55625;47.072;22.192;2022-10-18T07:31:09;8.00;;;3.45;;
68633;SDS011;55625;47.072;22.192;2022-10-18T07:33:36;7.75;;;3.67;;
68633;SDS011;55625;47.072;22.192;2022-10-18T07:36:04;11.23;;;3.97;;
68633;SDS011;55625;47.072;22.192;2022-10-18T07:38:32;8.83;;;2.97;;
68633;SDS011;55625;47.072;22.192;2022-10-18T07:40:59;7.57;;;3.13;;
68633;SDS011;55625;47.072;22.192;2022-10-18T07:43:28;7.25;;;3.03;;
68633;SDS011;55625;47.072;22.192;2022-10-18T07:45:55;8.88;;;3.83;;
68633;SDS011;55625;47.072;22.192;2022-10-18T07:48:26;8.52;;;3.70;;
68633;SDS011;55625;47.072;22.192;2022-10-18T07:50:53;10.23;;;3.20;;
68633;SDS011;55625;47.072;22.192;2022-10-18T07:53:19;15.10;;;5.10;;
68633;SDS011;55625;47.072;22.192;2022-10-18T07:55:44;13.98;;;6.93;;
68633;SDS011;55625;47.072;22.192;2022-10-18T07:58:10;13.57;;;6.37;;
68633;SDS011;55625;47.072;22.192;2022-10-18T08:00:36;10.55;;;5.55;;
68633;SDS011;55625;47.072;22.192;2022-10-18T08:03:03;7.35;;;3.55;;
68633;SDS011;55625;47.072;22.192;2022-10-18T08:05:29;14.75;;;5.65;;
68633;SDS011;55625;47.072;22.192;2022-10-18T08:07:56;11.47;;;3.90;;
68633;SDS011;55625;47.072;22.192;2022-10-18T08:10:22;11.57;;;3.55;;
68633;SDS011;55625;47.072;22.192;2022-10-18T08:12:49;10.55;;;4.20;;
68633;SDS011;55625;47.072;22.192;2022-10-18T08:15:15;7.68;;;3.78;;
68633;SDS011;55625;47.072;22.192;2022-10-18T08:17:41;8.67;;;3.13;;
68633;SDS011;55625;47.072;22.192;2022-10-18T08:20:10;8.38;;;3.65;;
68633;SDS011;55625;47.072;22.192;2022-10-18T08:22:36;8.25;;;4.45;;
68633;SDS011;55625;47.072;22.192;2022-10-18T08:25:02;10.25;;;3.72;;
68633;SDS011;55625;47.072;22.192;2022-10-18T08:27:28;7.88;;;2.92;;
68633;SDS011;55625;47.072;22.192;2022-10-18T08:29:53;8.37;;;3.73;;
68633;SDS011;55625;47.072;22.192;2022-10-18T08:32:19;9.15;;;3.90;;
68633;SDS011;55625;47.072;22.192;2022-10-18T08:34:45;7.67;;;3.07;;
68633;SDS011;55625;47.072;22.192;2022-10-18T08:37:11;9.55;;;3.03;;
68633;SDS011;55625;47.072;22.192;2022-10-18T08:39:37;16.20;;;3.03;;
68633;SDS011;55625;47.072;22.192;2022-10-18T08:45:05;11.25;;;3.63;;
68633;SDS011;55625;47.072;22.192;2022-10-18T08:47:40;9.05;;;4.00;;
68633;SDS011;55625;47.072;22.192;2022-10-18T08:50:14;10.05;;;3.40;;
68633;SDS011;55625;47.072;22.192;2022-10-18T08:55:32;9.57;;;3.20;;
68633;SDS011;55625;47.072;22.192;2022-10-18T08:58:22;12.52;;;4.10;;
68633;SDS011;55625;47.072;22.192;2022-10-18T09:01:02;6.68;;;2.70;;
68633;SDS011;55625;47.072;22.192;2022-10-18T09:12:19;8.38;;;3.33;;
68633;SDS011;55625;47.072;22.192;2022-10-18T09:20:29;7.60;;;2.88;;
68633;SDS011;55625;47.072;22.192;2022-10-18T09:26:15;10.07;;;3.92;;
68633;SDS011;55625;47.072;22.192;2022-10-18T09:34:33;10.32;;;3.95;;
68633;SDS011;55625;47.072;22.192;2022-10-18T09:37:11;9.23;;;4.80;;
68633;SDS011;55625;47.072;22.192;2022-10-18T09:39:41;7.95;;;3.53;;
68633;SDS011;55625;47.072;22.192;2022-10-18T09:42:29;9.95;;;3.78;;
68633;SDS011;55625;47.072;22.192;2022-10-18T09:45:12;9.27;;;3.95;;
68633;SDS011;55625;47.072;22.192;2022-10-18T09:48:11;10.27;;;3.60;;
68633;SDS011;55625;47.072;22.192;2022-10-18T09:50:43;6.00;;;2.67;;
68633;SDS011;55625;47.072;22.192;2022-10-18T09:53:23;8.10;;;3.38;;
68633;SDS011;55625;47.072;22.192;2022-10-18T09:58:39;9.65;;;4.30;;
68633;SDS011;55625;47.072;22.192;2022-10-18T10:01:06;8.60;;;3.35;;
68633;SDS011;55625;47.072;22.192;2022-10-18T10:03:33;7.20;;;3.43;;
68633;SDS011;55625;47.072;22.192;2022-10-18T10:08:42;12.98;;;3.85;;
68633;SDS011;55625;47.072;22.192;2022-10-18T10:11:28;8.50;;;4.65;;
68633;SDS011;55625;47.072;22.192;2022-10-18T10:14:14;7.65;;;3.53;;
68633;SDS011;55625;47.072;22.192;2022-10-18T10:21:52;12.65;;;4.35;;
68633;SDS011;55625;47.072;22.192;2022-10-18T10:25:00;11.65;;;4.68;;
68633;SDS011;55625;47.072;22.192;2022-10-18T10:27:29;10.43;;;4.32;;
68633;SDS011;55625;47.072;22.192;2022-10-18T10:30:12;10.23;;;4.20;;
68633;SDS011;55625;47.072;22.192;2022-10-18T10:32:55;9.45;;;4.30;;
68633;SDS011;55625;47.072;22.192;2022-10-18T10:35:34;13.35;;;2.97;;
68633;SDS011;55625;47.072;22.192;2022-10-18T10:38:05;10.52;;;4.80;;
68633;SDS011;55625;47.072;22.192;2022-10-18T10:40:52;10.98;;;4.40;;
68633;SDS011;55625;47.072;22.192;2022-10-18T10:43:36;12.93;;;4.27;;
68633;SDS011;55625;47.072;22.192;2022-10-18T10:46:04;9.35;;;3.53;;
68633;SDS011;55625;47.072;22.192;2022-10-18T10:51:29;11.05;;;4.60;;
68633;SDS011;55625;47.072;22.192;2022-10-18T10:56:35;9.10;;;4.03;;
68633;SDS011;55625;47.072;22.192;2022-10-18T10:59:18;11.63;;;4.57;;
68633;SDS011;55625;47.072;22.192;2022-10-18T11:01:46;9.00;;;4.18;;
68633;SDS011;55625;47.072;22.192;2022-10-18T11:04:22;12.15;;;4.72;;
68633;SDS011;55625;47.072;22.192;2022-10-18T11:12:36;11.27;;;3.85;;
68633;SDS011;55625;47.072;22.192;2022-10-18T11:17:39;8.02;;;4.07;;
68633;SDS011;55625;47.072;22.192;2022-10-18T11:20:12;8.35;;;4.07;;
68633;SDS011;55625;47.072;22.192;2022-10-18T11:22:57;10.03;;;3.90;;
68633;SDS011;55625;47.072;22.192;2022-10-18T11:25:39;10.35;;;3.55;;
68633;SDS011;55625;47.072;22.192;2022-10-18T11:51:00;9.00;;;4.20;;
68633;SDS011;55625;47.072;22.192;2022-10-18T12:02:46;7.25;;;3.20;;
68633;SDS011;55625;47.072;22.192;2022-10-18T12:05:44;7.13;;;3.30;;
68633;SDS011;55625;47.072;22.192;2022-10-18T12:08:14;8.00;;;3.78;;
68633;SDS011;55625;47.072;22.192;2022-10-18T12:10:43;10.40;;;4.03;;
68633;SDS011;55625;47.072;22.192;2022-10-18T12:13:17;10.55;;;3.35;;
68633;SDS011;55625;47.072;22.192;2022-10-18T12:16:08;9.82;;;3.83;;
68633;SDS011;55625;47.072;22.192;2022-10-18T12:18:40;8.57;;;3.73;;
68633;SDS011;55625;47.072;22.192;2022-10-18T12:21:22;9.07;;;4.70;;
68633;SDS011;55625;47.072;22.192;2022-10-18T12:23:55;9.82;;;4.47;;
68633;SDS011;55625;47.072;22.192;2022-10-18T12:26:36;7.50;;;3.90;;
68633;SDS011;55625;47.072;22.192;2022-10-18T12:32:10;9.20;;;3.40;;
68633;SDS011;55625;47.072;22.192;2022-10-18T12:43:28;7.80;;;2.58;;
68633;SDS011;55625;47.072;22.192;2022-10-18T12:46:00;10.27;;;4.27;;
68633;SDS011;55625;47.072;22.192;2022-10-18T12:48:37;9.60;;;3.72;;
68633;SDS011;55625;47.072;22.192;2022-10-18T12:51:14;7.78;;;3.08;;
68633;SDS011;55625;47.072;22.192;2022-10-18T12:53:46;8.65;;;3.85;;
68633;SDS011;55625;47.072;22.192;2022-10-18T12:56:37;8.10;;;3.42;;
68633;SDS011;55625;47.072;22.192;2022-10-18T13:02:24;10.00;;;3.90;;
68633;SDS011;55625;47.072;22.192;2022-10-18T13:09:35;10.40;;;3.80;;
68633;SDS011;55625;47.072;22.192;2022-10-18T13:18:25;10.55;;;4.50;;
68633;SDS011;55625;47.072;22.192;2022-10-18T13:20:56;11.30;;;4.88;;
68633;SDS011;55625;47.072;22.192;2022-10-18T13:23:59;10.73;;;3.80;;
68633;SDS011;55625;47.072;22.192;2022-10-18T13:29:54;10.35;;;3.58;;
68633;SDS011;55625;47.072;22.192;2022-10-18T13:35:43;8.18;;;2.97;;
68633;SDS011;55625;47.072;22.192;2022-10-18T13:38:36;10.10;;;3.50;;
68633;SDS011;55625;47.072;22.192;2022-10-18T13:44:22;8.02;;;3.00;;
68633;SDS011;55625;47.072;22.192;2022-10-18T14:01:05;14.17;;;5.27;;
68633;SDS011;55625;47.072;22.192;2022-10-18T14:03:40;12.88;;;5.30;;
68633;SDS011;55625;47.072;22.192;2022-10-18T14:06:51;10.13;;;4.40;;
68633;SDS011;55625;47.072;22.192;2022-10-18T14:09:22;8.38;;;3.28;;
68633;SDS011;55625;47.072;22.192;2022-10-18T14:11:54;8.30;;;3.80;;
68633;SDS011;55625;47.072;22.192;2022-10-18T14:14:39;8.83;;;3.40;;
68633;SDS011;55625;47.072;22.192;2022-10-18T14:23:03;9.75;;;4.05;;
68633;SDS011;55625;47.072;22.192;2022-10-18T14:25:41;8.00;;;3.03;;
68633;SDS011;55625;47.072;22.192;2022-10-18T14:28:17;11.60;;;4.30;;
68633;SDS011;55625;47.072;22.192;2022-10-18T14:30:52;11.95;;;3.72;;
68633;SDS011;55625;47.072;22.192;2022-10-18T14:33:37;10.07;;;3.65;;
68633;SDS011;55625;47.072;22.192;2022-10-18T14:38:56;11.02;;;3.53;;
68633;SDS011;55625;47.072;22.192;2022-10-18T14:49:09;12.07;;;4.47;;
68633;SDS011;55625;47.072;22.192;2022-10-18T14:51:37;10.93;;;3.85;;
68633;SDS011;55625;47.072;22.192;2022-10-18T14:54:06;13.70;;;5.03;;
68633;SDS011;55625;47.072;22.192;2022-10-18T14:56:39;13.80;;;4.93;;
68633;SDS011;55625;47.072;22.192;2022-10-18T14:59:19;15.93;;;6.28;;
68633;SDS011;55625;47.072;22.192;2022-10-18T15:02:35;19.00;;;5.97;;
68633;SDS011;55625;47.072;22.192;2022-10-18T15:07:42;13.77;;;4.50;;
68633;SDS011;55625;47.072;22.192;2022-10-18T15:10:09;18.17;;;7.00;;
68633;SDS011;55625;47.072;22.192;2022-10-18T15:12:42;14.05;;;5.60;;
68633;SDS011;55625;47.072;22.192;2022-10-18T15:15:20;17.13;;;5.90;;
68633;SDS011;55625;47.072;22.192;2022-10-18T15:17:52;13.60;;;6.35;;
68633;SDS011;55625;47.072;22.192;2022-10-18T15:20:25;16.33;;;6.60;;
68633;SDS011;55625;47.072;22.192;2022-10-18T15:25:51;17.30;;;6.95;;
68633;SDS011;55625;47.072;22.192;2022-10-18T15:28:27;16.85;;;6.82;;
68633;SDS011;55625;47.072;22.192;2022-10-18T15:31:00;13.82;;;6.22;;
68633;SDS011;55625;47.072;22.192;2022-10-18T15:33:27;17.73;;;5.23;;
68633;SDS011;55625;47.072;22.192;2022-10-18T15:36:24;14.25;;;7.10;;
68633;SDS011;55625;47.072;22.192;2022-10-18T15:41:48;20.40;;;7.65;;
68633;SDS011;55625;47.072;22.192;2022-10-18T15:46:52;32.13;;;11.93;;
68633;SDS011;55625;47.072;22.192;2022-10-18T15:54:46;19.67;;;8.65;;
68633;SDS011;55625;47.072;22.192;2022-10-18T15:57:12;31.85;;;9.68;;
68633;SDS011;55625;47.072;22.192;2022-10-18T15:59:47;21.60;;;9.20;;
68633;SDS011;55625;47.072;22.192;2022-10-18T16:02:21;21.08;;;10.93;;
68633;SDS011;55625;47.072;22.192;2022-10-18T16:04:47;24.58;;;10.43;;
68633;SDS011;55625;47.072;22.192;2022-10-18T16:07:13;25.83;;;10.75;;
68633;SDS011;55625;47.072;22.192;2022-10-18T16:09:39;22.63;;;12.33;;
68633;SDS011;55625;47.072;22.192;2022-10-18T16:12:05;42.78;;;16.58;;
68633;SDS011;55625;47.072;22.192;2022-10-18T16:14:31;25.30;;;12.93;;
68633;SDS011;55625;47.072;22.192;2022-10-18T16:16:58;35.93;;;12.07;;
68633;SDS011;55625;47.072;22.192;2022-10-18T16:19:26;24.08;;;11.52;;
68633;SDS011;55625;47.072;22.192;2022-10-18T16:21:52;29.63;;;12.70;;
68633;SDS011;55625;47.072;22.192;2022-10-18T16:24:19;26.08;;;12.57;;
68633;SDS011;55625;47.072;22.192;2022-10-18T16:26:45;31.27;;;13.93;;
68633;SDS011;55625;47.072;22.192;2022-10-18T16:29:13;29.92;;;13.48;;
68633;SDS011;55625;47.072;22.192;2022-10-18T16:31:43;37.00;;;14.57;;
68633;SDS011;55625;47.072;22.192;2022-10-18T16:34:10;37.20;;;14.93;;
68633;SDS011;55625;47.072;22.192;2022-10-18T16:36:38;37.38;;;17.80;;
68633;SDS011;55625;47.072;22.192;2022-10-18T16:39:05;37.17;;;15.57;;
68633;SDS011;55625;47.072;22.192;2022-10-18T16:41:37;46.90;;;18.08;;
68633;SDS011;55625;47.072;22.192;2022-10-18T16:44:03;66.35;;;25.95;;
68633;SDS011;55625;47.072;22.192;2022-10-18T16:46:30;61.63;;;25.97;;
68633;SDS011;55625;47.072;22.192;2022-10-18T16:48:58;66.20;;;27.20;;
68633;SDS011;55625;47.072;22.192;2022-10-18T16:51:25;68.82;;;27.00;;
68633;SDS011;55625;47.072;22.192;2022-10-18T16:53:51;82.57;;;31.33;;
68633;SDS011;55625;47.072;22.192;2022-10-18T16:56:28;85.07;;;29.88;;
68633;SDS011;55625;47.072;22.192;2022-10-18T16:58:56;64.50;;;26.40;;
68633;SDS011;55625;47.072;22.192;2022-10-18T17:01:23;61.28;;;25.08;;
68633;SDS011;55625;47.072;22.192;2022-10-18T17:03:50;59.47;;;25.58;;
68633;SDS011;55625;47.072;22.192;2022-10-18T17:06:21;59.80;;;22.77;;
68633;SDS011;55625;47.072;22.192;2022-10-18T17:08:56;63.20;;;25.23;;
68633;SDS011;55625;47.072;22.192;2022-10-18T17:11:23;69.00;;;25.80;;
68633;SDS011;55625;47.072;22.192;2022-10-18T17:13:51;55.20;;;23.65;;
68633;SDS011;55625;47.072;22.192;2022-10-18T17:16:24;61.85;;;23.77;;
68633;SDS011;55625;47.072;22.192;2022-10-18T17:18:59;63.80;;;26.63;;
68633;SDS011;55625;47.072;22.192;2022-10-18T17:21:28;57.40;;;26.27;;
68633;SDS011;55625;47.072;22.192;2022-10-18T17:23:55;60.93;;;26.00;;
68633;SDS011;55625;47.072;22.192;2022-10-18T17:26:31;69.50;;;30.58;;
68633;SDS011;55625;47.072;22.192;2022-10-18T17:29:02;80.90;;;31.35;;
68633;SDS011;55625;47.072;22.192;2022-10-18T17:31:32;68.90;;;29.88;;
68633;SDS011;55625;47.072;22.192;2022-10-18T17:33:59;71.97;;;29.90;;
68633;SDS011;55625;47.072;22.192;2022-10-18T17:36:25;70.87;;;29.90;;
68633;SDS011;55625;47.072;22.192;2022-10-18T17:38:52;65.88;;;28.38;;
68633;SDS011;55625;47.072;22.192;2022-10-18T17:41:18;64.45;;;27.58;;
68633;SDS011;55625;47.072;22.192;2022-10-18T17:43:45;53.22;;;22.63;;
68633;SDS011;55625;47.072;22.192;2022-10-18T17:46:12;58.10;;;25.50;;
68633;SDS011;55625;47.072;22.192;2022-10-18T17:48:38;50.83;;;22.57;;
68633;SDS011;55625;47.072;22.192;2022-10-18T17:51:06;54.25;;;20.88;;
68633;SDS011;55625;47.072;22.192;2022-10-18T17:53:36;51.92;;;20.65;;
68633;SDS011;55625;47.072;22.192;2022-10-18T17:56:03;47.25;;;18.55;;
68633;SDS011;55625;47.072;22.192;2022-10-18T17:58:29;47.40;;;18.27;;